sensor_id;sensor_type;location;lat;lon;timestamp;temperature;humidity
9175;DHT22;54374;50.196;8.050;2022-09-17T00:00:46;6.70;99.90
9175;DHT22;54374;50.196;8.050;2022-09-17T00:03:13;6.70;99.90
9175;DHT22;54374;50.196;8.050;2022-09-17T00:05:42;6.60;99.90
9175;DHT22;54374;50.196;8.050;2022-09-17T00:08:11;6.60;99.90
9175;DHT22;54374;50.196;8.050;2022-09-17T00:10:41;6.70;99.90
9175;DHT22;54374;50.196;8.050;2022-09-17T00:13:09;6.70;99.90
9175;DHT22;54374;50.196;8.050;2022-09-17T00:15:39;6.60;99.90
9175;DHT22;54374;50.196;8.050;2022-09-17T00:18:06;6.70;99.90
9175;DHT22;54374;50.196;8.050;2022-09-17T00:20:37;6.70;99.90
9175;DHT22;54374;50.196;8.050;2022-09-17T00:23:04;6.70;99.90
9175;DHT22;54374;50.196;8.050;2022-09-17T00:25:36;6.60;99.90
9175;DHT22;54374;50.196;8.050;2022-09-17T00:28:03;6.50;99.90
9175;DHT22;54374;50.196;8.050;2022-09-17T00:30:30;6.50;99.90
9175;DHT22;54374;50.196;8.050;2022-09-17T00:32:58;6.60;99.90
9175;DHT22;54374;50.196;8.050;2022-09-17T00:35:25;6.60;99.90
9175;DHT22;54374;50.196;8.050;2022-09-17T00:37:53;6.60;99.90
9175;DHT22;54374;50.196;8.050;2022-09-17T00:40:20;6.70;99.90
9175;DHT22;54374;50.196;8.050;2022-09-17T00:42:49;6.80;99.90
9175;DHT22;54374;50.196;8.050;2022-09-17T00:45:18;6.80;99.90
9175;DHT22;54374;50.196;8.050;2022-09-17T00:47:49;6.90;99.90
9175;DHT22;54374;50.196;8.050;2022-09-17T00:50:22;6.90;99.90
9175;DHT22;54374;50.196;8.050;2022-09-17T00:52:51;7.00;99.90
9175;DHT22;54374;50.196;8.050;2022-09-17T00:55:23;7.10;99.90
9175;DHT22;54374;50.196;8.050;2022-09-17T00:57:54;7.20;99.90
9175;DHT22;54374;50.196;8.050;2022-09-17T01:00:22;7.30;99.90
9175;DHT22;54374;50.196;8.050;2022-09-17T01:02:50;7.70;99.90
9175;DHT22;54374;50.196;8.050;2022-09-17T01:05:21;7.40;99.90
9175;DHT22;54374;50.196;8.050;2022-09-17T01:08:02;7.50;99.90
9175;DHT22;54374;50.196;8.050;2022-09-17T01:10:44;7.60;99.90
9175;DHT22;54374;50.196;8.050;2022-09-17T01:13:25;7.60;99.90
9175;DHT22;54374;50.196;8.050;2022-09-17T01:16:02;7.70;99.90
9175;DHT22;54374;50.196;8.050;2022-09-17T01:18:42;7.80;99.90
9175;DHT22;54374;50.196;8.050;2022-09-17T01:21:52;7.80;99.90
9175;DHT22;54374;50.196;8.050;2022-09-17T01:24:58;7.90;99.90
9175;DHT22;54374;50.196;8.050;2022-09-17T01:30:54;8.10;99.90
9175;DHT22;54374;50.196;8.050;2022-09-17T01:33:30;8.20;99.90
9175;DHT22;54374;50.196;8.050;2022-09-17T01:36:16;8.20;99.90
9175;DHT22;54374;50.196;8.050;2022-09-17T01:38:51;8.20;99.90
9175;DHT22;54374;50.196;8.050;2022-09-17T01:41:28;8.20;99.90
9175;DHT22;54374;50.196;8.050;2022-09-17T01:44:01;8.30;99.90
9175;DHT22;54374;50.196;8.050;2022-09-17T01:46:33;8.30;99.90
9175;DHT22;54374;50.196;8.050;2022-09-17T01:49:04;8.30;99.90
9175;DHT22;54374;50.196;8.050;2022-09-17T01:51:35;8.30;99.90
9175;DHT22;54374;50.196;8.050;2022-09-17T01:54:05;8.30;99.90
9175;DHT22;54374;50.196;8.050;2022-09-17T01:56:36;8.50;99.90
9175;DHT22;54374;50.196;8.050;2022-09-17T01:59:10;8.40;99.90
9175;DHT22;54374;50.196;8.050;2022-09-17T02:01:43;8.50;99.90
9175;DHT22;54374;50.196;8.050;2022-09-17T02:04:16;8.50;99.90
9175;DHT22;54374;50.196;8.050;2022-09-17T02:06:50;8.50;99.90
9175;DHT22;54374;50.196;8.050;2022-09-17T02:09:20;8.60;99.90
9175;DHT22;54374;50.196;8.050;2022-09-17T02:11:51;8.50;99.90
9175;DHT22;54374;50.196;8.050;2022-09-17T02:14:22;8.50;99.90
9175;DHT22;54374;50.196;8.050;2022-09-17T02:16:55;8.50;99.90
9175;DHT22;54374;50.196;8.050;2022-09-17T02:19:27;8.50;99.90
9175;DHT22;54374;50.196;8.050;2022-09-17T02:21:59;8.50;99.90
9175;DHT22;54374;50.196;8.050;2022-09-17T02:24:34;8.50;99.90
9175;DHT22;54374;50.196;8.050;2022-09-17T02:27:05;8.50;99.90
9175;DHT22;54374;50.196;8.050;2022-09-17T02:29:36;8.50;99.90
9175;DHT22;54374;50.196;8.050;2022-09-17T02:32:05;8.50;99.90
9175;DHT22;54374;50.196;8.050;2022-09-17T02:34:32;8.50;99.90
9175;DHT22;54374;50.196;8.050;2022-09-17T02:37:00;8.50;99.90
9175;DHT22;54374;50.196;8.050;2022-09-17T02:39:28;8.50;99.90
9175;DHT22;54374;50.196;8.050;2022-09-17T02:42:03;8.50;99.90
9175;DHT22;54374;50.196;8.050;2022-09-17T02:44:39;8.50;99.90
9175;DHT22;54374;50.196;8.050;2022-09-17T02:47:27;8.60;99.90
9175;DHT22;54374;50.196;8.050;2022-09-17T02:50:17;8.60;99.90
9175;DHT22;54374;50.196;8.050;2022-09-17T02:52:56;8.60;99.90
9175;DHT22;54374;50.196;8.050;2022-09-17T02:55:31;8.60;99.90
9175;DHT22;54374;50.196;8.050;2022-09-17T02:58:11;8.60;99.90
9175;DHT22;54374;50.196;8.050;2022-09-17T03:00:40;8.60;99.90
9175;DHT22;54374;50.196;8.050;2022-09-17T03:03:12;8.60;99.90
9175;DHT22;54374;50.196;8.050;2022-09-17T03:05:43;8.60;99.90
9175;DHT22;54374;50.196;8.050;2022-09-17T03:08:12;8.70;99.90
9175;DHT22;54374;50.196;8.050;2022-09-17T03:10:40;8.70;99.90
9175;DHT22;54374;50.196;8.050;2022-09-17T03:13:07;8.70;99.90
9175;DHT22;54374;50.196;8.050;2022-09-17T03:15:34;8.70;99.90
9175;DHT22;54374;50.196;8.050;2022-09-17T03:18:02;9.30;99.90
9175;DHT22;54374;50.196;8.050;2022-09-17T03:20:30;8.70;99.90
9175;DHT22;54374;50.196;8.050;2022-09-17T03:22:57;8.70;99.90
9175;DHT22;54374;50.196;8.050;2022-09-17T03:25:24;8.70;99.90
9175;DHT22;54374;50.196;8.050;2022-09-17T03:27:51;8.70;99.90
9175;DHT22;54374;50.196;8.050;2022-09-17T03:30:18;8.70;99.90
9175;DHT22;54374;50.196;8.050;2022-09-17T03:32:45;8.70;99.90
9175;DHT22;54374;50.196;8.050;2022-09-17T03:35:12;8.70;99.90
9175;DHT22;54374;50.196;8.050;2022-09-17T03:37:40;8.70;99.90
9175;DHT22;54374;50.196;8.050;2022-09-17T03:40:08;8.70;99.90
9175;DHT22;54374;50.196;8.050;2022-09-17T03:42:35;8.70;99.90
9175;DHT22;54374;50.196;8.050;2022-09-17T03:45:02;8.70;99.90
9175;DHT22;54374;50.196;8.050;2022-09-17T03:47:29;8.70;99.90
9175;DHT22;54374;50.196;8.050;2022-09-17T03:49:56;8.80;99.90
9175;DHT22;54374;50.196;8.050;2022-09-17T03:52:23;8.80;99.90
9175;DHT22;54374;50.196;8.050;2022-09-17T03:54:51;8.80;99.90
9175;DHT22;54374;50.196;8.050;2022-09-17T03:57:18;8.80;99.90
9175;DHT22;54374;50.196;8.050;2022-09-17T03:59:46;8.70;99.90
9175;DHT22;54374;50.196;8.050;2022-09-17T04:02:12;8.70;99.90
9175;DHT22;54374;50.196;8.050;2022-09-17T04:04:40;8.70;99.90
9175;DHT22;54374;50.196;8.050;2022-09-17T04:07:07;8.70;99.90
9175;DHT22;54374;50.196;8.050;2022-09-17T04:09:34;8.70;99.90
9175;DHT22;54374;50.196;8.050;2022-09-17T04:12:02;8.70;99.90
9175;DHT22;54374;50.196;8.050;2022-09-17T04:14:29;8.70;99.90
9175;DHT22;54374;50.196;8.050;2022-09-17T04:16:57;8.70;99.90
9175;DHT22;54374;50.196;8.050;2022-09-17T04:19:24;8.70;99.90
9175;DHT22;54374;50.196;8.050;2022-09-17T04:21:51;8.70;99.90
9175;DHT22;54374;50.196;8.050;2022-09-17T04:24:18;8.70;99.90
9175;DHT22;54374;50.196;8.050;2022-09-17T04:26:45;8.70;99.90
9175;DHT22;54374;50.196;8.050;2022-09-17T04:29:13;8.70;99.90
9175;DHT22;54374;50.196;8.050;2022-09-17T04:31:40;8.70;99.90
9175;DHT22;54374;50.196;8.050;2022-09-17T04:34:07;8.70;99.90
9175;DHT22;54374;50.196;8.050;2022-09-17T04:36:34;8.70;99.90
9175;DHT22;54374;50.196;8.050;2022-09-17T04:39:01;8.70;99.90
9175;DHT22;54374;50.196;8.050;2022-09-17T04:41:28;8.70;99.90
9175;DHT22;54374;50.196;8.050;2022-09-17T04:43:55;8.70;99.90
9175;DHT22;54374;50.196;8.050;2022-09-17T04:46:23;8.70;99.90
9175;DHT22;54374;50.196;8.050;2022-09-17T04:48:50;8.80;99.90
9175;DHT22;54374;50.196;8.050;2022-09-17T04:51:17;8.80;99.90
9175;DHT22;54374;50.196;8.050;2022-09-17T04:53:44;10.90;99.90
9175;DHT22;54374;50.196;8.050;2022-09-17T04:56:11;8.90;99.90
9175;DHT22;54374;50.196;8.050;2022-09-17T04:58:38;8.90;99.90
9175;DHT22;54374;50.196;8.050;2022-09-17T05:01:05;8.90;99.90
9175;DHT22;54374;50.196;8.050;2022-09-17T05:03:33;8.90;99.90
9175;DHT22;54374;50.196;8.050;2022-09-17T05:06:05;8.90;99.90
9175;DHT22;54374;50.196;8.050;2022-09-17T05:08:33;8.90;99.90
9175;DHT22;54374;50.196;8.050;2022-09-17T05:11:00;9.00;99.90
9175;DHT22;54374;50.196;8.050;2022-09-17T05:13:27;9.80;99.90
9175;DHT22;54374;50.196;8.050;2022-09-17T05:15:54;8.90;99.90
9175;DHT22;54374;50.196;8.050;2022-09-17T05:18:21;9.10;99.90
9175;DHT22;54374;50.196;8.050;2022-09-17T05:20:50;9.20;99.90
9175;DHT22;54374;50.196;8.050;2022-09-17T05:23:17;9.00;99.90
9175;DHT22;54374;50.196;8.050;2022-09-17T05:25:44;9.00;99.90
9175;DHT22;54374;50.196;8.050;2022-09-17T05:28:11;9.00;99.90
9175;DHT22;54374;50.196;8.050;2022-09-17T05:30:38;9.00;99.90
9175;DHT22;54374;50.196;8.050;2022-09-17T05:33:06;9.00;99.90
9175;DHT22;54374;50.196;8.050;2022-09-17T05:35:33;9.00;99.90
9175;DHT22;54374;50.196;8.050;2022-09-17T05:38:04;9.10;99.90
9175;DHT22;54374;50.196;8.050;2022-09-17T05:40:32;9.10;99.90
9175;DHT22;54374;50.196;8.050;2022-09-17T05:42:59;9.10;99.90
9175;DHT22;54374;50.196;8.050;2022-09-17T05:45:29;9.20;99.90
9175;DHT22;54374;50.196;8.050;2022-09-17T05:47:57;9.20;99.90
9175;DHT22;54374;50.196;8.050;2022-09-17T05:50:25;9.20;99.90
9175;DHT22;54374;50.196;8.050;2022-09-17T05:52:53;9.20;99.90
9175;DHT22;54374;50.196;8.050;2022-09-17T05:55:22;9.20;99.90
9175;DHT22;54374;50.196;8.050;2022-09-17T05:57:49;10.50;99.90
9175;DHT22;54374;50.196;8.050;2022-09-17T06:00:16;9.20;99.90
9175;DHT22;54374;50.196;8.050;2022-09-17T06:02:43;9.30;99.90
9175;DHT22;54374;50.196;8.050;2022-09-17T06:05:10;9.40;99.90
9175;DHT22;54374;50.196;8.050;2022-09-17T06:07:38;9.40;99.90
9175;DHT22;54374;50.196;8.050;2022-09-17T06:10:06;9.40;99.90
9175;DHT22;54374;50.196;8.050;2022-09-17T06:12:35;9.50;99.90
9175;DHT22;54374;50.196;8.050;2022-09-17T06:15:02;9.50;99.90
9175;DHT22;54374;50.196;8.050;2022-09-17T06:17:32;9.60;99.90
9175;DHT22;54374;50.196;8.050;2022-09-17T06:19:59;9.70;99.90
9175;DHT22;54374;50.196;8.050;2022-09-17T06:22:27;9.70;99.90
9175;DHT22;54374;50.196;8.050;2022-09-17T06:24:54;9.80;99.90
9175;DHT22;54374;50.196;8.050;2022-09-17T06:27:21;9.80;99.90
9175;DHT22;54374;50.196;8.050;2022-09-17T06:29:49;9.90;99.90
9175;DHT22;54374;50.196;8.050;2022-09-17T06:32:16;9.80;99.90
9175;DHT22;54374;50.196;8.050;2022-09-17T06:34:43;9.80;99.90
9175;DHT22;54374;50.196;8.050;2022-09-17T06:37:10;9.80;99.90
9175;DHT22;54374;50.196;8.050;2022-09-17T06:39:37;9.80;99.90
9175;DHT22;54374;50.196;8.050;2022-09-17T06:42:05;9.80;99.90
9175;DHT22;54374;50.196;8.050;2022-09-17T06:44:32;9.80;99.90
9175;DHT22;54374;50.196;8.050;2022-09-17T06:47:00;9.80;99.90
9175;DHT22;54374;50.196;8.050;2022-09-17T06:49:27;9.90;99.90
9175;DHT22;54374;50.196;8.050;2022-09-17T06:51:55;10.00;99.90
9175;DHT22;54374;50.196;8.050;2022-09-17T06:54:22;10.00;99.90
9175;DHT22;54374;50.196;8.050;2022-09-17T06:56:49;10.00;99.90
9175;DHT22;54374;50.196;8.050;2022-09-17T06:59:16;10.10;99.90
9175;DHT22;54374;50.196;8.050;2022-09-17T07:01:43;10.20;99.90
9175;DHT22;54374;50.196;8.050;2022-09-17T07:04:13;10.40;99.90
9175;DHT22;54374;50.196;8.050;2022-09-17T07:06:42;10.30;99.90
9175;DHT22;54374;50.196;8.050;2022-09-17T07:09:09;10.30;99.90
9175;DHT22;54374;50.196;8.050;2022-09-17T07:11:37;10.40;99.90
9175;DHT22;54374;50.196;8.050;2022-09-17T07:14:04;10.40;99.90
9175;DHT22;54374;50.196;8.050;2022-09-17T07:16:32;10.40;99.90
9175;DHT22;54374;50.196;8.050;2022-09-17T07:19:02;10.60;99.90
9175;DHT22;54374;50.196;8.050;2022-09-17T07:21:30;10.40;99.90
9175;DHT22;54374;50.196;8.050;2022-09-17T07:23:57;10.40;99.90
9175;DHT22;54374;50.196;8.050;2022-09-17T07:26:24;10.50;99.90
9175;DHT22;54374;50.196;8.050;2022-09-17T07:28:51;10.60;99.90
9175;DHT22;54374;50.196;8.050;2022-09-17T07:31:18;10.80;99.90
9175;DHT22;54374;50.196;8.050;2022-09-17T07:33:45;10.80;99.90
9175;DHT22;54374;50.196;8.050;2022-09-17T07:36:14;11.10;99.90
9175;DHT22;54374;50.196;8.050;2022-09-17T07:38:43;10.90;99.90
9175;DHT22;54374;50.196;8.050;2022-09-17T07:41:11;10.90;99.90
9175;DHT22;54374;50.196;8.050;2022-09-17T07:43:39;10.90;99.90
9175;DHT22;54374;50.196;8.050;2022-09-17T07:46:09;10.90;99.90
9175;DHT22;54374;50.196;8.050;2022-09-17T07:48:38;10.90;99.90
9175;DHT22;54374;50.196;8.050;2022-09-17T07:51:05;10.90;99.90
9175;DHT22;54374;50.196;8.050;2022-09-17T07:53:32;10.90;99.90
9175;DHT22;54374;50.196;8.050;2022-09-17T07:56:01;11.00;99.90
9175;DHT22;54374;50.196;8.050;2022-09-17T07:58:29;11.10;99.90
9175;DHT22;54374;50.196;8.050;2022-09-17T08:00:59;11.10;99.90
9175;DHT22;54374;50.196;8.050;2022-09-17T08:03:29;11.10;99.90
9175;DHT22;54374;50.196;8.050;2022-09-17T08:06:01;11.30;99.90
9175;DHT22;54374;50.196;8.050;2022-09-17T08:08:29;11.30;99.90
9175;DHT22;54374;50.196;8.050;2022-09-17T08:11:01;11.40;99.90
9175;DHT22;54374;50.196;8.050;2022-09-17T08:13:28;11.30;99.90
9175;DHT22;54374;50.196;8.050;2022-09-17T08:15:57;11.30;99.90
9175;DHT22;54374;50.196;8.050;2022-09-17T08:18:25;11.30;99.90
9175;DHT22;54374;50.196;8.050;2022-09-17T08:20:55;12.90;99.90
9175;DHT22;54374;50.196;8.050;2022-09-17T08:23:22;11.40;99.90
9175;DHT22;54374;50.196;8.050;2022-09-17T08:25:53;11.30;99.90
9175;DHT22;54374;50.196;8.050;2022-09-17T08:28:22;11.40;99.90
9175;DHT22;54374;50.196;8.050;2022-09-17T08:30:50;11.40;99.90
9175;DHT22;54374;50.196;8.050;2022-09-17T08:33:17;11.50;99.90
9175;DHT22;54374;50.196;8.050;2022-09-17T08:35:51;11.60;99.90
9175;DHT22;54374;50.196;8.050;2022-09-17T08:38:18;11.60;99.90
9175;DHT22;54374;50.196;8.050;2022-09-17T08:40:55;11.70;99.90
9175;DHT22;54374;50.196;8.050;2022-09-17T08:43:28;11.90;99.90
9175;DHT22;54374;50.196;8.050;2022-09-17T08:45:56;12.00;99.90
9175;DHT22;54374;50.196;8.050;2022-09-17T08:48:27;12.20;99.90
9175;DHT22;54374;50.196;8.050;2022-09-17T08:50:57;12.30;99.90
9175;DHT22;54374;50.196;8.050;2022-09-17T08:53:39;12.50;99.90
9175;DHT22;54374;50.196;8.050;2022-09-17T08:56:12;12.60;99.90
9175;DHT22;54374;50.196;8.050;2022-09-17T08:58:49;12.60;99.90
9175;DHT22;54374;50.196;8.050;2022-09-17T09:01:26;12.50;99.90
9175;DHT22;54374;50.196;8.050;2022-09-17T09:04:03;12.40;99.90
9175;DHT22;54374;50.196;8.050;2022-09-17T09:06:34;12.10;99.90
9175;DHT22;54374;50.196;8.050;2022-09-17T09:09:05;11.30;99.90
9175;DHT22;54374;50.196;8.050;2022-09-17T09:11:39;10.30;99.90
9175;DHT22;54374;50.196;8.050;2022-09-17T09:14:14;9.80;99.90
9175;DHT22;54374;50.196;8.050;2022-09-17T09:16:43;9.40;99.90
9175;DHT22;54374;50.196;8.050;2022-09-17T09:19:20;9.00;99.90
9175;DHT22;54374;50.196;8.050;2022-09-17T09:22:00;8.80;99.90
9175;DHT22;54374;50.196;8.050;2022-09-17T09:24:38;8.80;99.90
9175;DHT22;54374;50.196;8.050;2022-09-17T09:27:15;8.80;99.90
9175;DHT22;54374;50.196;8.050;2022-09-17T09:29:58;9.00;99.90
9175;DHT22;54374;50.196;8.050;2022-09-17T09:32:45;9.10;99.90
9175;DHT22;54374;50.196;8.050;2022-09-17T09:35:18;7.90;99.90
9175;DHT22;54374;50.196;8.050;2022-09-17T09:37:52;9.20;99.90
9175;DHT22;54374;50.196;8.050;2022-09-17T09:40:32;9.30;99.90
9175;DHT22;54374;50.196;8.050;2022-09-17T09:43:02;9.30;99.90
9175;DHT22;54374;50.196;8.050;2022-09-17T09:45:45;9.40;99.90
9175;DHT22;54374;50.196;8.050;2022-09-17T09:48:21;9.50;99.90
9175;DHT22;54374;50.196;8.050;2022-09-17T09:51:03;9.60;99.90
9175;DHT22;54374;50.196;8.050;2022-09-17T09:53:43;9.70;99.90
9175;DHT22;54374;50.196;8.050;2022-09-17T09:56:35;9.90;99.90
9175;DHT22;54374;50.196;8.050;2022-09-17T09:59:06;9.90;99.90
9175;DHT22;54374;50.196;8.050;2022-09-17T10:01:39;10.10;99.90
9175;DHT22;54374;50.196;8.050;2022-09-17T10:04:16;10.10;99.90
9175;DHT22;54374;50.196;8.050;2022-09-17T10:06:44;10.10;99.90
9175;DHT22;54374;50.196;8.050;2022-09-17T10:09:13;10.10;99.90
9175;DHT22;54374;50.196;8.050;2022-09-17T10:11:41;10.20;99.90
9175;DHT22;54374;50.196;8.050;2022-09-17T10:14:22;10.30;99.90
9175;DHT22;54374;50.196;8.050;2022-09-17T10:17:10;10.40;99.90
9175;DHT22;54374;50.196;8.050;2022-09-17T10:19:37;10.50;99.90
9175;DHT22;54374;50.196;8.050;2022-09-17T10:22:18;10.60;99.90
9175;DHT22;54374;50.196;8.050;2022-09-17T10:24:46;10.80;99.90
9175;DHT22;54374;50.196;8.050;2022-09-17T10:27:16;11.00;99.90
9175;DHT22;54374;50.196;8.050;2022-09-17T10:29:44;11.30;99.90
9175;DHT22;54374;50.196;8.050;2022-09-17T10:32:17;11.40;99.90
9175;DHT22;54374;50.196;8.050;2022-09-17T10:34:58;11.60;99.90
9175;DHT22;54374;50.196;8.050;2022-09-17T10:37:34;11.80;99.90
9175;DHT22;54374;50.196;8.050;2022-09-17T10:40:27;11.90;99.90
9175;DHT22;54374;50.196;8.050;2022-09-17T10:43:19;12.00;99.90
9175;DHT22;54374;50.196;8.050;2022-09-17T10:45:55;11.80;99.90
9175;DHT22;54374;50.196;8.050;2022-09-17T10:48:26;11.70;99.90
9175;DHT22;54374;50.196;8.050;2022-09-17T10:50:55;11.60;99.90
9175;DHT22;54374;50.196;8.050;2022-09-17T10:53:24;11.60;99.90
9175;DHT22;54374;50.196;8.050;2022-09-17T10:55:54;11.60;99.90
9175;DHT22;54374;50.196;8.050;2022-09-17T10:58:34;11.80;99.90
9175;DHT22;54374;50.196;8.050;2022-09-17T11:01:14;11.90;99.90
9175;DHT22;54374;50.196;8.050;2022-09-17T11:07:15;12.40;99.90
9175;DHT22;54374;50.196;8.050;2022-09-17T11:09:51;12.70;99.90
9175;DHT22;54374;50.196;8.050;2022-09-17T11:12:39;12.90;99.90
9175;DHT22;54374;50.196;8.050;2022-09-17T11:15:17;13.00;99.90
9175;DHT22;54374;50.196;8.050;2022-09-17T11:18:01;13.20;99.90
9175;DHT22;54374;50.196;8.050;2022-09-17T11:20:43;13.20;99.90
9175;DHT22;54374;50.196;8.050;2022-09-17T11:23:29;13.30;99.90
9175;DHT22;54374;50.196;8.050;2022-09-17T11:26:04;13.30;99.90
9175;DHT22;54374;50.196;8.050;2022-09-17T11:28:46;13.30;99.90
9175;DHT22;54374;50.196;8.050;2022-09-17T11:31:23;13.40;99.90
9175;DHT22;54374;50.196;8.050;2022-09-17T11:34:11;13.60;99.90
9175;DHT22;54374;50.196;8.050;2022-09-17T11:36:52;14.90;99.90
9175;DHT22;54374;50.196;8.050;2022-09-17T11:39:27;13.70;99.90
9175;DHT22;54374;50.196;8.050;2022-09-17T11:41:56;13.90;99.90
9175;DHT22;54374;50.196;8.050;2022-09-17T11:44:27;14.00;99.90
9175;DHT22;54374;50.196;8.050;2022-09-17T11:46:58;14.10;99.90
9175;DHT22;54374;50.196;8.050;2022-09-17T11:49:34;14.20;99.90
9175;DHT22;54374;50.196;8.050;2022-09-17T11:52:05;14.20;99.90
9175;DHT22;54374;50.196;8.050;2022-09-17T11:54:42;14.00;99.90
9175;DHT22;54374;50.196;8.050;2022-09-17T11:57:14;13.40;99.90
9175;DHT22;54374;50.196;8.050;2022-09-17T11:59:45;13.40;99.90
9175;DHT22;54374;50.196;8.050;2022-09-17T12:02:18;13.20;99.90
9175;DHT22;54374;50.196;8.050;2022-09-17T12:04:54;13.60;99.90
9175;DHT22;54374;50.196;8.050;2022-09-17T12:07:31;12.90;99.90
9175;DHT22;54374;50.196;8.050;2022-09-17T12:10:16;12.50;99.90
9175;DHT22;54374;50.196;8.050;2022-09-17T12:12:49;12.20;99.90
9175;DHT22;54374;50.196;8.050;2022-09-17T12:15:23;12.00;99.90
9175;DHT22;54374;50.196;8.050;2022-09-17T12:17:55;11.80;99.90
9175;DHT22;54374;50.196;8.050;2022-09-17T12:20:27;11.70;99.90
9175;DHT22;54374;50.196;8.050;2022-09-17T12:22:57;11.70;99.90
9175;DHT22;54374;50.196;8.050;2022-09-17T12:25:33;12.20;99.90
9175;DHT22;54374;50.196;8.050;2022-09-17T12:28:07;11.90;99.90
9175;DHT22;54374;50.196;8.050;2022-09-17T12:30:37;12.00;99.90
9175;DHT22;54374;50.196;8.050;2022-09-17T12:33:15;12.10;99.90
9175;DHT22;54374;50.196;8.050;2022-09-17T12:38:58;12.30;99.90
9175;DHT22;54374;50.196;8.050;2022-09-17T12:41:32;12.60;99.90
9175;DHT22;54374;50.196;8.050;2022-09-17T12:44:17;12.60;99.90
9175;DHT22;54374;50.196;8.050;2022-09-17T12:47:00;12.60;99.90
9175;DHT22;54374;50.196;8.050;2022-09-17T12:49:52;12.60;99.90
9175;DHT22;54374;50.196;8.050;2022-09-17T12:52:33;12.60;99.90
9175;DHT22;54374;50.196;8.050;2022-09-17T12:55:24;12.50;99.90
9175;DHT22;54374;50.196;8.050;2022-09-17T12:58:03;12.40;99.90
9175;DHT22;54374;50.196;8.050;2022-09-17T13:00:38;12.40;99.90
9175;DHT22;54374;50.196;8.050;2022-09-17T13:03:14;12.50;99.90
9175;DHT22;54374;50.196;8.050;2022-09-17T13:06:02;12.40;99.90
9175;DHT22;54374;50.196;8.050;2022-09-17T13:12:06;12.60;99.90
9175;DHT22;54374;50.196;8.050;2022-09-17T13:14:59;12.70;99.90
9175;DHT22;54374;50.196;8.050;2022-09-17T13:17:35;12.80;99.90
9175;DHT22;54374;50.196;8.050;2022-09-17T13:20:12;13.00;99.90
9175;DHT22;54374;50.196;8.050;2022-09-17T13:22:46;13.90;99.90
9175;DHT22;54374;50.196;8.050;2022-09-17T13:25:16;13.00;99.90
9175;DHT22;54374;50.196;8.050;2022-09-17T13:27:47;13.00;99.90
9175;DHT22;54374;50.196;8.050;2022-09-17T13:30:18;13.80;99.90
9175;DHT22;54374;50.196;8.050;2022-09-17T13:32:52;13.20;99.90
9175;DHT22;54374;50.196;8.050;2022-09-17T13:35:45;13.40;99.90
9175;DHT22;54374;50.196;8.050;2022-09-17T13:38:12;13.60;99.90
9175;DHT22;54374;50.196;8.050;2022-09-17T13:40:40;13.70;99.90
9175;DHT22;54374;50.196;8.050;2022-09-17T13:43:09;13.70;99.90
9175;DHT22;54374;50.196;8.050;2022-09-17T13:48:49;13.80;99.90
9175;DHT22;54374;50.196;8.050;2022-09-17T13:51:50;14.00;99.90
9175;DHT22;54374;50.196;8.050;2022-09-17T13:54:19;14.20;99.90
9175;DHT22;54374;50.196;8.050;2022-09-17T13:57:01;14.30;99.90
9175;DHT22;54374;50.196;8.050;2022-09-17T13:59:28;14.30;99.90
9175;DHT22;54374;50.196;8.050;2022-09-17T14:02:01;14.00;99.90
9175;DHT22;54374;50.196;8.050;2022-09-17T14:04:47;14.10;99.90
9175;DHT22;54374;50.196;8.050;2022-09-17T14:07:34;13.40;99.90
9175;DHT22;54374;50.196;8.050;2022-09-17T14:10:34;13.40;99.90
9175;DHT22;54374;50.196;8.050;2022-09-17T14:13:24;14.20;99.90
9175;DHT22;54374;50.196;8.050;2022-09-17T14:15:57;13.30;99.90
9175;DHT22;54374;50.196;8.050;2022-09-17T14:18:36;13.50;99.90
9175;DHT22;54374;50.196;8.050;2022-09-17T14:21:14;13.60;99.90
9175;DHT22;54374;50.196;8.050;2022-09-17T14:23:43;13.60;99.90
9175;DHT22;54374;50.196;8.050;2022-09-17T14:26:16;13.60;99.90
9175;DHT22;54374;50.196;8.050;2022-09-17T14:28:50;13.40;99.90
9175;DHT22;54374;50.196;8.050;2022-09-17T14:31:29;13.30;99.90
9175;DHT22;54374;50.196;8.050;2022-09-17T14:33:57;13.10;99.90
9175;DHT22;54374;50.196;8.050;2022-09-17T14:36:25;13.00;99.90
9175;DHT22;54374;50.196;8.050;2022-09-17T14:38:54;12.80;99.90
9175;DHT22;54374;50.196;8.050;2022-09-17T14:41:23;12.60;99.90
9175;DHT22;54374;50.196;8.050;2022-09-17T14:43:54;12.60;99.90
9175;DHT22;54374;50.196;8.050;2022-09-17T14:46:26;12.70;99.90
9175;DHT22;54374;50.196;8.050;2022-09-17T14:48:54;12.60;99.90
9175;DHT22;54374;50.196;8.050;2022-09-17T14:51:28;12.60;99.90
9175;DHT22;54374;50.196;8.050;2022-09-17T14:54:23;12.50;99.90
9175;DHT22;54374;50.196;8.050;2022-09-17T14:56:53;13.00;99.90
9175;DHT22;54374;50.196;8.050;2022-09-17T14:59:37;12.60;99.90
9175;DHT22;54374;50.196;8.050;2022-09-17T15:02:27;12.60;99.90
9175;DHT22;54374;50.196;8.050;2022-09-17T15:04:55;12.60;99.90
9175;DHT22;54374;50.196;8.050;2022-09-17T15:07:25;12.60;99.90
9175;DHT22;54374;50.196;8.050;2022-09-17T15:09:52;12.60;99.90
9175;DHT22;54374;50.196;8.050;2022-09-17T15:12:23;12.70;99.90
9175;DHT22;54374;50.196;8.050;2022-09-17T15:14:51;12.60;99.90
9175;DHT22;54374;50.196;8.050;2022-09-17T15:17:20;13.50;99.90
9175;DHT22;54374;50.196;8.050;2022-09-17T15:19:49;12.70;99.90
9175;DHT22;54374;50.196;8.050;2022-09-17T15:22:20;12.80;99.90
9175;DHT22;54374;50.196;8.050;2022-09-17T15:24:54;12.90;99.90
9175;DHT22;54374;50.196;8.050;2022-09-17T15:27:24;13.20;99.90
9175;DHT22;54374;50.196;8.050;2022-09-17T15:29:54;13.00;99.90
9175;DHT22;54374;50.196;8.050;2022-09-17T15:32:22;12.60;99.90
9175;DHT22;54374;50.196;8.050;2022-09-17T15:35:18;11.50;99.90
9175;DHT22;54374;50.196;8.050;2022-09-17T15:37:47;10.30;99.90
9175;DHT22;54374;50.196;8.050;2022-09-17T15:40:24;9.50;99.90
9175;DHT22;54374;50.196;8.050;2022-09-17T15:42:54;9.10;99.90
9175;DHT22;54374;50.196;8.050;2022-09-17T15:45:26;9.00;99.90
9175;DHT22;54374;50.196;8.050;2022-09-17T15:47:55;9.00;99.90
9175;DHT22;54374;50.196;8.050;2022-09-17T15:50:23;9.00;99.90
9175;DHT22;54374;50.196;8.050;2022-09-17T15:52:57;9.10;99.90
9175;DHT22;54374;50.196;8.050;2022-09-17T15:55:35;9.30;99.90
9175;DHT22;54374;50.196;8.050;2022-09-17T15:58:04;10.60;99.90
9175;DHT22;54374;50.196;8.050;2022-09-17T16:00:32;11.70;99.90
9175;DHT22;54374;50.196;8.050;2022-09-17T16:06:05;9.40;99.90
9175;DHT22;54374;50.196;8.050;2022-09-17T16:08:51;9.40;99.90
9175;DHT22;54374;50.196;8.050;2022-09-17T16:11:22;10.50;99.90
9175;DHT22;54374;50.196;8.050;2022-09-17T16:13:50;9.50;99.90
9175;DHT22;54374;50.196;8.050;2022-09-17T16:16:20;9.50;99.90
9175;DHT22;54374;50.196;8.050;2022-09-17T16:18:47;9.50;99.90
9175;DHT22;54374;50.196;8.050;2022-09-17T16:21:16;10.80;99.90
9175;DHT22;54374;50.196;8.050;2022-09-17T16:23:43;9.90;99.90
9175;DHT22;54374;50.196;8.050;2022-09-17T16:26:14;10.60;99.90
9175;DHT22;54374;50.196;8.050;2022-09-17T16:28:43;11.80;99.90
9175;DHT22;54374;50.196;8.050;2022-09-17T16:31:11;10.00;99.90
9175;DHT22;54374;50.196;8.050;2022-09-17T16:33:39;10.00;99.90
9175;DHT22;54374;50.196;8.050;2022-09-17T16:36:06;10.00;99.90
9175;DHT22;54374;50.196;8.050;2022-09-17T16:38:35;13.00;99.90
9175;DHT22;54374;50.196;8.050;2022-09-17T16:41:04;10.00;99.90
9175;DHT22;54374;50.196;8.050;2022-09-17T16:43:31;10.00;99.90
9175;DHT22;54374;50.196;8.050;2022-09-17T16:46:01;10.00;99.90